Airports Italy Il Caravaggio International Airport

Il Caravaggio International Airport (LIME / BGY)

Facts about Il Caravaggio International Airport

Name Il Caravaggio International Airport
City Bergamo
Country Italy
ICAO code LIME
IATA code BGY
Elevation 238.3536 meters (782 feet)

Weather

METAR

Metar data retrieved Saturday, 20 July 2024 at 00:25 UTC (1 minutes ago)

LIME 192350Z 02004KT 350V060 CAVOK 24/15 Q1013 NOSIG

Live traffic

Navigraph Charts (account required)